Bangor, ME

9:56 PM EDT on July 25, 2016 (GMT -0400)
Bangor International | | Change Station

Elev 190 ft 44.80 °N, 68.82 °W | Updated 3 minutes ago

Overcast
Overcast
73 °F
Feels Like 73 °F
N
5
Wind Variable Wind from WSW

Today
High -- | Low -- °F
--% Chance of Precip.
Yesterday
High -- | Low -- °F
Precip. -- in
Pressure 29.79 in
Visibility 10.0 miles
Clouds Overcast 9500 ft
Dew Point 62 °F
Humidity 68%
Rainfall 0.00 in
Snow Depth Not available.
5:14 AM 8:08 PM
Waning Gibbous, 60% visible
METAR KBGR 260153Z 24004KT 10SM OVC095 23/17 A2980 RMK AO2 RAB15E25 SLP088 P0000 T02280167
Pressure 29.79 in
Visibility 10.0 miles
Clouds Overcast 9500 ft
Dew Point 62 °F
Humidity 68%
Rainfall 0.00 in
Snow Depth Not available.
5:14 AM 8:08 PM
Waning Gibbous, 60% visible
METAR KBGR 260153Z 24004KT 10SM OVC095 23/17 A2980 RMK AO2 RAB15E25 SLP088 P0000 T02280167
Record highs are possible for parts of the Northeast Monday and Tuesday, as parts of the central U.S. take a little breather from the worst of summer's dog day heat.

Expansive high pressure in the upper atmosphere will focus on parts of the East and West this week, sending heat indices well into the triple digits from the Mid-Atlantic states into the South.

10-Day Weather Forecast

Almanac

Astronomy

Jul. 25, 2016 Rise Set
Actual Time
Civil Twilight
Nautical Twilight
Astronomical Twilight
Moon
Length of Visible Light
Length of Day
Tomorrow will be .
, % of the Moon is Illuminated

Today's Extremes

State Highs State Lows

Community

WunderPhotos

Upload Photos

1,927,497 photos uploaded!

WunderBlog® & News

Nearby

Air Quality

  Air Quality AQ Index Pollutant
Not available.

Snow Depth

Station Depth Elevation

Earthquake Activity

City Distance Mag. Time & Date
Minimum magnitude displayed is 2.5.

Coastal Water Temperatures

Place Temperature

Stations

Nearby Weather Stations

Station Location Temp. Windchill Dew Point Humidity Wind Precip. Elev Updated Type
                   

Watches & Warnings

There are currently no watches in effect.